sensor_id;sensor_type;location;lat;lon;timestamp;temperature;humidity
15638;DHT22;26604;53.596;10.042;2022-07-23T00:00:16;22.50;1.00
15638;DHT22;26604;53.596;10.042;2022-07-23T00:02:44;22.50;1.00
15638;DHT22;26604;53.596;10.042;2022-07-23T00:05:11;22.50;1.00
15638;DHT22;26604;53.596;10.042;2022-07-23T00:07:39;22.50;1.00
15638;DHT22;26604;53.596;10.042;2022-07-23T00:10:07;22.50;1.00
15638;DHT22;26604;53.596;10.042;2022-07-23T00:12:35;22.50;1.00
15638;DHT22;26604;53.596;10.042;2022-07-23T00:15:03;22.50;1.00
15638;DHT22;26604;53.596;10.042;2022-07-23T00:17:30;22.50;1.00
15638;DHT22;26604;53.596;10.042;2022-07-23T00:19:57;22.50;1.00
15638;DHT22;26604;53.596;10.042;2022-07-23T00:22:24;22.50;1.00
15638;DHT22;26604;53.596;10.042;2022-07-23T00:24:53;22.50;1.00
15638;DHT22;26604;53.596;10.042;2022-07-23T00:27:19;22.50;1.00
15638;DHT22;26604;53.596;10.042;2022-07-23T00:29:46;22.50;1.00
15638;DHT22;26604;53.596;10.042;2022-07-23T00:32:14;22.50;1.00
15638;DHT22;26604;53.596;10.042;2022-07-23T00:34:41;22.50;1.00
15638;DHT22;26604;53.596;10.042;2022-07-23T00:37:08;22.50;1.00
15638;DHT22;26604;53.596;10.042;2022-07-23T00:39:35;22.50;99.90
15638;DHT22;26604;53.596;10.042;2022-07-23T00:42:03;22.40;99.90
15638;DHT22;26604;53.596;10.042;2022-07-23T00:44:30;22.50;99.90
15638;DHT22;26604;53.596;10.042;2022-07-23T00:46:58;22.50;69.20
15638;DHT22;26604;53.596;10.042;2022-07-23T00:49:29;22.50;1.00
15638;DHT22;26604;53.596;10.042;2022-07-23T00:51:57;22.40;1.00
15638;DHT22;26604;53.596;10.042;2022-07-23T00:54:27;22.50;1.00
15638;DHT22;26604;53.596;10.042;2022-07-23T00:56:54;22.40;1.00
15638;DHT22;26604;53.596;10.042;2022-07-23T00:59:22;22.40;99.90
15638;DHT22;26604;53.596;10.042;2022-07-23T01:01:49;22.40;99.90
15638;DHT22;26604;53.596;10.042;2022-07-23T01:04:16;22.40;99.90
15638;DHT22;26604;53.596;10.042;2022-07-23T01:06:44;22.40;99.90
15638;DHT22;26604;53.596;10.042;2022-07-23T01:09:12;22.40;99.90
15638;DHT22;26604;53.596;10.042;2022-07-23T01:11:39;22.40;90.50
15638;DHT22;26604;53.596;10.042;2022-07-23T01:14:15;22.40;38.10
15638;DHT22;26604;53.596;10.042;2022-07-23T01:16:46;22.40;21.10
15638;DHT22;26604;53.596;10.042;2022-07-23T01:19:14;22.40;7.00
15638;DHT22;26604;53.596;10.042;2022-07-23T01:21:43;22.40;1.00
15638;DHT22;26604;53.596;10.042;2022-07-23T01:24:12;22.40;1.00
15638;DHT22;26604;53.596;10.042;2022-07-23T01:26:42;22.40;4.50
15638;DHT22;26604;53.596;10.042;2022-07-23T01:29:10;22.40;15.40
15638;DHT22;26604;53.596;10.042;2022-07-23T01:31:37;22.40;22.90
15638;DHT22;26604;53.596;10.042;2022-07-23T01:34:04;22.40;30.30
15638;DHT22;26604;53.596;10.042;2022-07-23T01:36:32;22.40;52.40
15638;DHT22;26604;53.596;10.042;2022-07-23T01:38:59;22.40;77.30
15638;DHT22;26604;53.596;10.042;2022-07-23T01:41:27;22.40;65.10
15638;DHT22;26604;53.596;10.042;2022-07-23T01:43:54;22.40;59.40
15638;DHT22;26604;53.596;10.042;2022-07-23T01:46:21;22.40;42.10
15638;DHT22;26604;53.596;10.042;2022-07-23T01:48:49;22.40;27.40
15638;DHT22;26604;53.596;10.042;2022-07-23T01:51:16;22.40;7.00
15638;DHT22;26604;53.596;10.042;2022-07-23T01:53:42;22.40;1.00
15638;DHT22;26604;53.596;10.042;2022-07-23T01:56:09;22.40;1.00
15638;DHT22;26604;53.596;10.042;2022-07-23T01:58:38;22.40;1.00
15638;DHT22;26604;53.596;10.042;2022-07-23T02:01:05;22.40;1.00
15638;DHT22;26604;53.596;10.042;2022-07-23T02:03:32;22.40;1.00
15638;DHT22;26604;53.596;10.042;2022-07-23T02:05:58;22.40;1.00
15638;DHT22;26604;53.596;10.042;2022-07-23T02:08:25;22.40;1.00
15638;DHT22;26604;53.596;10.042;2022-07-23T02:10:52;22.40;1.00
15638;DHT22;26604;53.596;10.042;2022-07-23T02:13:19;22.40;1.00
15638;DHT22;26604;53.596;10.042;2022-07-23T02:15:47;22.40;1.00
15638;DHT22;26604;53.596;10.042;2022-07-23T02:18:15;22.40;1.00
15638;DHT22;26604;53.596;10.042;2022-07-23T02:20:42;22.40;1.00
15638;DHT22;26604;53.596;10.042;2022-07-23T02:23:10;22.40;1.00
15638;DHT22;26604;53.596;10.042;2022-07-23T02:25:37;22.40;1.00
15638;DHT22;26604;53.596;10.042;2022-07-23T02:28:04;22.40;1.00
15638;DHT22;26604;53.596;10.042;2022-07-23T02:30:31;22.40;1.00
15638;DHT22;26604;53.596;10.042;2022-07-23T02:32:59;22.40;1.00
15638;DHT22;26604;53.596;10.042;2022-07-23T02:35:26;22.40;7.10
15638;DHT22;26604;53.596;10.042;2022-07-23T02:37:53;22.40;37.20
15638;DHT22;26604;53.596;10.042;2022-07-23T02:40:20;22.40;50.80
15638;DHT22;26604;53.596;10.042;2022-07-23T02:42:47;22.50;62.20
15638;DHT22;26604;53.596;10.042;2022-07-23T02:45:14;22.40;95.00
15638;DHT22;26604;53.596;10.042;2022-07-23T02:47:40;22.50;96.90
15638;DHT22;26604;53.596;10.042;2022-07-23T02:50:09;22.40;99.50
15638;DHT22;26604;53.596;10.042;2022-07-23T02:52:37;22.50;99.90
15638;DHT22;26604;53.596;10.042;2022-07-23T02:55:05;22.40;99.90
15638;DHT22;26604;53.596;10.042;2022-07-23T02:57:32;22.40;99.90
15638;DHT22;26604;53.596;10.042;2022-07-23T02:59:59;22.50;99.90
15638;DHT22;26604;53.596;10.042;2022-07-23T03:02:26;22.50;99.90
15638;DHT22;26604;53.596;10.042;2022-07-23T03:04:53;22.50;1.00
15638;DHT22;26604;53.596;10.042;2022-07-23T03:07:21;22.50;1.00
15638;DHT22;26604;53.596;10.042;2022-07-23T03:09:48;22.50;1.00
15638;DHT22;26604;53.596;10.042;2022-07-23T03:12:15;22.50;1.00
15638;DHT22;26604;53.596;10.042;2022-07-23T03:14:42;22.50;1.00
15638;DHT22;26604;53.596;10.042;2022-07-23T03:17:09;22.50;1.00
15638;DHT22;26604;53.596;10.042;2022-07-23T03:19:36;22.50;1.00
15638;DHT22;26604;53.596;10.042;2022-07-23T03:22:04;22.50;1.00
15638;DHT22;26604;53.596;10.042;2022-07-23T03:24:32;22.50;2.90
15638;DHT22;26604;53.596;10.042;2022-07-23T03:27:13;22.50;3.20
15638;DHT22;26604;53.596;10.042;2022-07-23T03:29:40;22.50;7.90
15638;DHT22;26604;53.596;10.042;2022-07-23T03:32:07;22.50;4.30
15638;DHT22;26604;53.596;10.042;2022-07-23T03:34:34;22.50;1.00
15638;DHT22;26604;53.596;10.042;2022-07-23T03:37:01;22.50;1.00
15638;DHT22;26604;53.596;10.042;2022-07-23T03:39:28;22.50;1.00
15638;DHT22;26604;53.596;10.042;2022-07-23T03:41:56;22.50;1.00
15638;DHT22;26604;53.596;10.042;2022-07-23T03:44:23;22.50;1.00
15638;DHT22;26604;53.596;10.042;2022-07-23T03:46:50;22.50;1.00
15638;DHT22;26604;53.596;10.042;2022-07-23T03:49:17;22.50;1.00
15638;DHT22;26604;53.596;10.042;2022-07-23T03:51:43;22.50;1.00
15638;DHT22;26604;53.596;10.042;2022-07-23T03:54:10;22.40;17.90
15638;DHT22;26604;53.596;10.042;2022-07-23T03:56:37;22.50;99.90
15638;DHT22;26604;53.596;10.042;2022-07-23T03:59:05;22.50;99.90
15638;DHT22;26604;53.596;10.042;2022-07-23T04:01:32;22.50;99.90
15638;DHT22;26604;53.596;10.042;2022-07-23T04:04:00;22.50;99.90
15638;DHT22;26604;53.596;10.042;2022-07-23T04:06:27;22.50;99.90
15638;DHT22;26604;53.596;10.042;2022-07-23T04:08:53;22.50;99.90
15638;DHT22;26604;53.596;10.042;2022-07-23T04:11:20;22.50;1.00
15638;DHT22;26604;53.596;10.042;2022-07-23T04:13:47;22.50;1.00
15638;DHT22;26604;53.596;10.042;2022-07-23T04:16:16;22.60;1.00
15638;DHT22;26604;53.596;10.042;2022-07-23T04:18:43;22.60;1.00
15638;DHT22;26604;53.596;10.042;2022-07-23T04:21:10;22.60;1.00
15638;DHT22;26604;53.596;10.042;2022-07-23T04:23:37;22.60;1.00
15638;DHT22;26604;53.596;10.042;2022-07-23T04:26:04;22.60;1.00
15638;DHT22;26604;53.596;10.042;2022-07-23T04:28:31;22.70;58.20
15638;DHT22;26604;53.596;10.042;2022-07-23T04:30:58;22.70;99.90
15638;DHT22;26604;53.596;10.042;2022-07-23T04:33:26;22.80;10.30
15638;DHT22;26604;53.596;10.042;2022-07-23T04:35:53;22.80;1.00
15638;DHT22;26604;53.596;10.042;2022-07-23T04:38:20;22.80;1.00
15638;DHT22;26604;53.596;10.042;2022-07-23T04:40:47;22.70;1.00
15638;DHT22;26604;53.596;10.042;2022-07-23T04:43:14;22.80;1.00
15638;DHT22;26604;53.596;10.042;2022-07-23T04:45:41;22.70;1.00
15638;DHT22;26604;53.596;10.042;2022-07-23T04:48:08;22.70;1.00
15638;DHT22;26604;53.596;10.042;2022-07-23T04:50:36;22.70;1.00
15638;DHT22;26604;53.596;10.042;2022-07-23T04:53:03;22.70;99.90
15638;DHT22;26604;53.596;10.042;2022-07-23T04:55:30;22.70;99.90
15638;DHT22;26604;53.596;10.042;2022-07-23T04:57:57;22.70;99.90
15638;DHT22;26604;53.596;10.042;2022-07-23T05:00:24;22.70;99.90
15638;DHT22;26604;53.596;10.042;2022-07-23T05:02:50;22.70;99.90
15638;DHT22;26604;53.596;10.042;2022-07-23T05:05:17;22.60;1.00
15638;DHT22;26604;53.596;10.042;2022-07-23T05:07:46;22.60;1.00
15638;DHT22;26604;53.596;10.042;2022-07-23T05:10:12;22.60;1.00
15638;DHT22;26604;53.596;10.042;2022-07-23T05:12:39;22.60;1.00
15638;DHT22;26604;53.596;10.042;2022-07-23T05:15:07;22.60;1.00
15638;DHT22;26604;53.596;10.042;2022-07-23T05:17:34;22.60;1.00
15638;DHT22;26604;53.596;10.042;2022-07-23T05:20:00;22.60;1.00
15638;DHT22;26604;53.596;10.042;2022-07-23T05:22:28;22.60;1.00
15638;DHT22;26604;53.596;10.042;2022-07-23T05:24:57;22.60;1.00
15638;DHT22;26604;53.596;10.042;2022-07-23T05:27:23;22.60;1.00
15638;DHT22;26604;53.596;10.042;2022-07-23T05:29:50;22.60;1.00
15638;DHT22;26604;53.596;10.042;2022-07-23T05:32:17;22.60;1.00
15638;DHT22;26604;53.596;10.042;2022-07-23T05:34:44;22.60;1.00
15638;DHT22;26604;53.596;10.042;2022-07-23T05:37:11;22.60;1.00
15638;DHT22;26604;53.596;10.042;2022-07-23T05:39:38;22.60;1.00
15638;DHT22;26604;53.596;10.042;2022-07-23T05:42:06;22.60;1.00
15638;DHT22;26604;53.596;10.042;2022-07-23T05:44:34;22.60;1.00
15638;DHT22;26604;53.596;10.042;2022-07-23T05:47:01;22.70;39.70
15638;DHT22;26604;53.596;10.042;2022-07-23T05:49:28;22.70;99.90
15638;DHT22;26604;53.596;10.042;2022-07-23T05:51:54;22.70;99.90
15638;DHT22;26604;53.596;10.042;2022-07-23T05:54:21;22.60;99.90
15638;DHT22;26604;53.596;10.042;2022-07-23T05:56:48;22.60;99.90
15638;DHT22;26604;53.596;10.042;2022-07-23T05:59:17;22.70;54.70
15638;DHT22;26604;53.596;10.042;2022-07-23T06:01:44;22.70;1.00
15638;DHT22;26604;53.596;10.042;2022-07-23T06:04:11;22.70;1.00
15638;DHT22;26604;53.596;10.042;2022-07-23T06:06:37;22.60;1.00
15638;DHT22;26604;53.596;10.042;2022-07-23T06:09:04;22.60;1.00
15638;DHT22;26604;53.596;10.042;2022-07-23T06:11:31;22.60;1.00
15638;DHT22;26604;53.596;10.042;2022-07-23T06:13:58;22.60;1.00
15638;DHT22;26604;53.596;10.042;2022-07-23T06:16:27;22.60;1.00
15638;DHT22;26604;53.596;10.042;2022-07-23T06:18:54;22.60;1.00
15638;DHT22;26604;53.596;10.042;2022-07-23T06:21:20;22.60;1.00
15638;DHT22;26604;53.596;10.042;2022-07-23T06:23:47;22.60;1.00
15638;DHT22;26604;53.596;10.042;2022-07-23T06:26:14;22.60;1.00
15638;DHT22;26604;53.596;10.042;2022-07-23T06:28:41;22.60;1.00
15638;DHT22;26604;53.596;10.042;2022-07-23T06:31:08;22.60;1.00
15638;DHT22;26604;53.596;10.042;2022-07-23T06:33:36;22.60;1.00
15638;DHT22;26604;53.596;10.042;2022-07-23T06:36:03;22.60;99.90
15638;DHT22;26604;53.596;10.042;2022-07-23T06:38:30;22.60;99.90
15638;DHT22;26604;53.596;10.042;2022-07-23T06:40:57;22.60;99.90
15638;DHT22;26604;53.596;10.042;2022-07-23T06:43:24;22.60;99.90
15638;DHT22;26604;53.596;10.042;2022-07-23T06:45:51;22.60;99.90
15638;DHT22;26604;53.596;10.042;2022-07-23T06:48:18;22.60;99.90
15638;DHT22;26604;53.596;10.042;2022-07-23T06:50:46;22.60;99.90
15638;DHT22;26604;53.596;10.042;2022-07-23T06:53:13;22.60;99.90
15638;DHT22;26604;53.596;10.042;2022-07-23T06:55:40;22.60;99.90
15638;DHT22;26604;53.596;10.042;2022-07-23T06:58:07;22.60;99.90
15638;DHT22;26604;53.596;10.042;2022-07-23T07:00:34;22.60;99.90
15638;DHT22;26604;53.596;10.042;2022-07-23T07:03:01;22.60;99.90
15638;DHT22;26604;53.596;10.042;2022-07-23T07:05:28;22.60;29.10
15638;DHT22;26604;53.596;10.042;2022-07-23T07:07:56;22.60;1.00
15638;DHT22;26604;53.596;10.042;2022-07-23T07:10:23;22.60;1.00
15638;DHT22;26604;53.596;10.042;2022-07-23T07:12:50;22.60;1.00
15638;DHT22;26604;53.596;10.042;2022-07-23T07:15:17;22.60;1.00
15638;DHT22;26604;53.596;10.042;2022-07-23T07:17:44;22.60;1.00
15638;DHT22;26604;53.596;10.042;2022-07-23T07:20:11;22.60;1.00
15638;DHT22;26604;53.596;10.042;2022-07-23T07:22:38;22.60;99.90
15638;DHT22;26604;53.596;10.042;2022-07-23T07:25:07;22.60;99.90
15638;DHT22;26604;53.596;10.042;2022-07-23T07:27:34;22.60;99.90
15638;DHT22;26604;53.596;10.042;2022-07-23T07:30:01;22.60;1.00
15638;DHT22;26604;53.596;10.042;2022-07-23T07:32:28;22.60;1.00
15638;DHT22;26604;53.596;10.042;2022-07-23T07:34:57;22.60;1.00
15638;DHT22;26604;53.596;10.042;2022-07-23T07:37:24;22.50;1.00
15638;DHT22;26604;53.596;10.042;2022-07-23T07:39:51;22.50;1.00
15638;DHT22;26604;53.596;10.042;2022-07-23T07:42:19;22.50;1.00
15638;DHT22;26604;53.596;10.042;2022-07-23T07:44:46;22.60;1.00
15638;DHT22;26604;53.596;10.042;2022-07-23T07:47:13;22.50;1.00
15638;DHT22;26604;53.596;10.042;2022-07-23T07:49:41;22.60;1.00
15638;DHT22;26604;53.596;10.042;2022-07-23T07:52:07;22.60;1.00
15638;DHT22;26604;53.596;10.042;2022-07-23T07:54:34;22.60;1.00
15638;DHT22;26604;53.596;10.042;2022-07-23T07:57:01;22.50;1.00
15638;DHT22;26604;53.596;10.042;2022-07-23T07:59:29;22.50;1.00
15638;DHT22;26604;53.596;10.042;2022-07-23T08:01:56;22.50;1.00
15638;DHT22;26604;53.596;10.042;2022-07-23T08:04:23;22.50;36.10
15638;DHT22;26604;53.596;10.042;2022-07-23T08:06:50;22.50;99.90
15638;DHT22;26604;53.596;10.042;2022-07-23T08:09:17;22.50;99.90
15638;DHT22;26604;53.596;10.042;2022-07-23T08:11:44;22.50;99.90
15638;DHT22;26604;53.596;10.042;2022-07-23T08:14:11;22.50;99.90
15638;DHT22;26604;53.596;10.042;2022-07-23T08:16:39;22.50;99.90
15638;DHT22;26604;53.596;10.042;2022-07-23T08:19:06;22.50;1.00
15638;DHT22;26604;53.596;10.042;2022-07-23T08:21:33;22.50;1.00
15638;DHT22;26604;53.596;10.042;2022-07-23T08:24:00;22.50;1.00
15638;DHT22;26604;53.596;10.042;2022-07-23T08:26:27;22.50;1.00
15638;DHT22;26604;53.596;10.042;2022-07-23T08:28:54;22.50;1.00
15638;DHT22;26604;53.596;10.042;2022-07-23T08:31:20;22.40;1.00
15638;DHT22;26604;53.596;10.042;2022-07-23T08:33:49;22.40;1.00
15638;DHT22;26604;53.596;10.042;2022-07-23T08:36:16;22.40;1.00
15638;DHT22;26604;53.596;10.042;2022-07-23T08:38:42;22.40;1.00
15638;DHT22;26604;53.596;10.042;2022-07-23T08:41:09;22.40;1.00
15638;DHT22;26604;53.596;10.042;2022-07-23T08:43:37;22.40;1.00
15638;DHT22;26604;53.596;10.042;2022-07-23T08:46:04;22.40;1.00
15638;DHT22;26604;53.596;10.042;2022-07-23T08:48:33;22.40;1.00
15638;DHT22;26604;53.596;10.042;2022-07-23T08:51:02;22.40;21.50
15638;DHT22;26604;53.596;10.042;2022-07-23T08:53:31;22.40;94.40
15638;DHT22;26604;53.596;10.042;2022-07-23T08:56:01;22.40;99.90
15638;DHT22;26604;53.596;10.042;2022-07-23T08:58:28;22.40;99.90
15638;DHT22;26604;53.596;10.042;2022-07-23T09:00:56;22.40;99.90
15638;DHT22;26604;53.596;10.042;2022-07-23T09:03:24;22.40;99.90
15638;DHT22;26604;53.596;10.042;2022-07-23T09:05:53;22.40;99.90
15638;DHT22;26604;53.596;10.042;2022-07-23T09:08:23;22.40;99.90
15638;DHT22;26604;53.596;10.042;2022-07-23T09:10:53;22.40;99.90
15638;DHT22;26604;53.596;10.042;2022-07-23T09:13:38;22.40;83.90
15638;DHT22;26604;53.596;10.042;2022-07-23T09:16:09;22.40;18.00
15638;DHT22;26604;53.596;10.042;2022-07-23T09:18:40;22.40;1.00
15638;DHT22;26604;53.596;10.042;2022-07-23T09:21:14;22.40;1.00
15638;DHT22;26604;53.596;10.042;2022-07-23T09:23:45;22.40;1.00
15638;DHT22;26604;53.596;10.042;2022-07-23T09:26:21;22.40;1.00
15638;DHT22;26604;53.596;10.042;2022-07-23T09:28:57;22.40;1.00
15638;DHT22;26604;53.596;10.042;2022-07-23T09:31:25;22.40;99.90
15638;DHT22;26604;53.596;10.042;2022-07-23T09:34:10;22.40;99.90
15638;DHT22;26604;53.596;10.042;2022-07-23T09:36:37;22.40;99.90
15638;DHT22;26604;53.596;10.042;2022-07-23T09:39:06;22.50;95.50
15638;DHT22;26604;53.596;10.042;2022-07-23T09:41:39;22.40;1.00
15638;DHT22;26604;53.596;10.042;2022-07-23T09:44:12;22.40;1.00
15638;DHT22;26604;53.596;10.042;2022-07-23T09:46:40;22.40;99.90
15638;DHT22;26604;53.596;10.042;2022-07-23T09:49:13;22.50;99.90
15638;DHT22;26604;53.596;10.042;2022-07-23T09:51:45;22.50;99.90
15638;DHT22;26604;53.596;10.042;2022-07-23T09:54:26;22.50;99.90
15638;DHT22;26604;53.596;10.042;2022-07-23T09:56:55;22.50;1.00
15638;DHT22;26604;53.596;10.042;2022-07-23T09:59:24;22.50;1.00
15638;DHT22;26604;53.596;10.042;2022-07-23T10:01:53;22.50;1.00
15638;DHT22;26604;53.596;10.042;2022-07-23T10:04:21;22.50;1.00
15638;DHT22;26604;53.596;10.042;2022-07-23T10:06:51;22.50;1.00
15638;DHT22;26604;53.596;10.042;2022-07-23T10:09:23;22.50;1.00
15638;DHT22;26604;53.596;10.042;2022-07-23T10:11:52;22.50;1.00
15638;DHT22;26604;53.596;10.042;2022-07-23T10:14:21;22.40;1.00
15638;DHT22;26604;53.596;10.042;2022-07-23T10:16:48;22.50;99.90
15638;DHT22;26604;53.596;10.042;2022-07-23T10:19:15;22.50;99.90
15638;DHT22;26604;53.596;10.042;2022-07-23T10:21:46;22.50;99.90
15638;DHT22;26604;53.596;10.042;2022-07-23T10:24:28;22.40;48.60
15638;DHT22;26604;53.596;10.042;2022-07-23T10:27:02;22.40;1.00
15638;DHT22;26604;53.596;10.042;2022-07-23T10:29:42;22.40;1.00
15638;DHT22;26604;53.596;10.042;2022-07-23T10:32:21;22.40;1.00
15638;DHT22;26604;53.596;10.042;2022-07-23T10:34:55;22.40;1.00
15638;DHT22;26604;53.596;10.042;2022-07-23T10:37:31;22.50;1.00
15638;DHT22;26604;53.596;10.042;2022-07-23T10:40:11;22.50;1.00
15638;DHT22;26604;53.596;10.042;2022-07-23T10:42:38;22.50;99.90
15638;DHT22;26604;53.596;10.042;2022-07-23T10:45:27;22.50;99.90
15638;DHT22;26604;53.596;10.042;2022-07-23T10:47:54;22.40;3.60
15638;DHT22;26604;53.596;10.042;2022-07-23T10:50:23;22.50;1.00
15638;DHT22;26604;53.596;10.042;2022-07-23T10:53:17;22.50;1.00
15638;DHT22;26604;53.596;10.042;2022-07-23T10:55:48;22.50;1.00
15638;DHT22;26604;53.596;10.042;2022-07-23T10:58:21;22.50;1.00
15638;DHT22;26604;53.596;10.042;2022-07-23T11:00:48;22.50;99.90
15638;DHT22;26604;53.596;10.042;2022-07-23T11:03:29;22.50;99.90
15638;DHT22;26604;53.596;10.042;2022-07-23T11:05:57;22.50;99.90
15638;DHT22;26604;53.596;10.042;2022-07-23T11:08:24;22.50;1.00
15638;DHT22;26604;53.596;10.042;2022-07-23T11:10:55;22.50;19.90
15638;DHT22;26604;53.596;10.042;2022-07-23T11:13:30;22.60;1.00
15638;DHT22;26604;53.596;10.042;2022-07-23T11:16:08;22.70;1.00
15638;DHT22;26604;53.596;10.042;2022-07-23T11:18:57;22.70;1.00
15638;DHT22;26604;53.596;10.042;2022-07-23T11:21:41;22.70;1.00
15638;DHT22;26604;53.596;10.042;2022-07-23T11:24:09;22.70;1.00
15638;DHT22;26604;53.596;10.042;2022-07-23T11:26:49;22.60;1.00
15638;DHT22;26604;53.596;10.042;2022-07-23T11:29:38;22.50;1.00
15638;DHT22;26604;53.596;10.042;2022-07-23T11:32:08;22.10;99.90
15638;DHT22;26604;53.596;10.042;2022-07-23T11:34:45;21.60;1.00
15638;DHT22;26604;53.596;10.042;2022-07-23T11:37:27;21.20;1.00
15638;DHT22;26604;53.596;10.042;2022-07-23T11:39:54;21.10;1.00
15638;DHT22;26604;53.596;10.042;2022-07-23T11:42:23;21.00;1.00
15638;DHT22;26604;53.596;10.042;2022-07-23T11:44:50;20.90;1.00
15638;DHT22;26604;53.596;10.042;2022-07-23T11:47:22;20.70;99.90
15638;DHT22;26604;53.596;10.042;2022-07-23T11:49:53;20.60;1.00
15638;DHT22;26604;53.596;10.042;2022-07-23T11:52:21;20.50;1.00
15638;DHT22;26604;53.596;10.042;2022-07-23T11:54:49;20.50;1.00
15638;DHT22;26604;53.596;10.042;2022-07-23T11:57:17;20.50;99.90
15638;DHT22;26604;53.596;10.042;2022-07-23T11:59:46;20.30;1.00
15638;DHT22;26604;53.596;10.042;2022-07-23T12:02:13;20.30;99.90
15638;DHT22;26604;53.596;10.042;2022-07-23T12:04:41;20.20;47.40
15638;DHT22;26604;53.596;10.042;2022-07-23T12:07:26;20.10;1.00
15638;DHT22;26604;53.596;10.042;2022-07-23T12:09:53;20.00;99.90
15638;DHT22;26604;53.596;10.042;2022-07-23T12:12:20;19.80;1.00
15638;DHT22;26604;53.596;10.042;2022-07-23T12:14:50;19.70;99.90
15638;DHT22;26604;53.596;10.042;2022-07-23T12:17:18;19.60;99.90
15638;DHT22;26604;53.596;10.042;2022-07-23T12:19:45;19.60;1.00
15638;DHT22;26604;53.596;10.042;2022-07-23T12:22:13;19.50;1.00
15638;DHT22;26604;53.596;10.042;2022-07-23T12:24:57;19.70;99.90
15638;DHT22;26604;53.596;10.042;2022-07-23T12:27:25;19.80;1.00
15638;DHT22;26604;53.596;10.042;2022-07-23T12:29:53;19.80;99.90
15638;DHT22;26604;53.596;10.042;2022-07-23T12:32:22;19.90;99.60
15638;DHT22;26604;53.596;10.042;2022-07-23T12:34:51;19.80;1.00
15638;DHT22;26604;53.596;10.042;2022-07-23T12:37:29;19.70;99.90
15638;DHT22;26604;53.596;10.042;2022-07-23T12:39:57;19.70;99.90
15638;DHT22;26604;53.596;10.042;2022-07-23T12:42:24;19.60;99.90
15638;DHT22;26604;53.596;10.042;2022-07-23T12:45:10;19.70;1.00
15638;DHT22;26604;53.596;10.042;2022-07-23T12:47:58;19.90;36.90
15638;DHT22;26604;53.596;10.042;2022-07-23T12:50:37;20.10;1.00
15638;DHT22;26604;53.596;10.042;2022-07-23T12:53:06;20.20;99.90
15638;DHT22;26604;53.596;10.042;2022-07-23T12:55:34;20.10;1.00
15638;DHT22;26604;53.596;10.042;2022-07-23T12:58:06;19.90;99.90
15638;DHT22;26604;53.596;10.042;2022-07-23T13:00:55;19.70;99.90
15638;DHT22;26604;53.596;10.042;2022-07-23T13:03:24;19.80;1.00
15638;DHT22;26604;53.596;10.042;2022-07-23T13:05:51;19.80;1.00
15638;DHT22;26604;53.596;10.042;2022-07-23T13:08:18;19.90;1.00
15638;DHT22;26604;53.596;10.042;2022-07-23T13:10:45;19.90;1.00
15638;DHT22;26604;53.596;10.042;2022-07-23T13:13:14;19.90;1.00
15638;DHT22;26604;53.596;10.042;2022-07-23T13:15:43;19.90;1.00
15638;DHT22;26604;53.596;10.042;2022-07-23T13:18:10;19.90;1.00
15638;DHT22;26604;53.596;10.042;2022-07-23T13:20:37;19.90;1.00
15638;DHT22;26604;53.596;10.042;2022-07-23T13:23:05;19.90;1.00
15638;DHT22;26604;53.596;10.042;2022-07-23T13:25:32;20.00;99.90
15638;DHT22;26604;53.596;10.042;2022-07-23T13:27:59;20.00;99.90
15638;DHT22;26604;53.596;10.042;2022-07-23T13:30:26;20.10;76.70
15638;DHT22;26604;53.596;10.042;2022-07-23T13:32:55;20.20;1.00
15638;DHT22;26604;53.596;10.042;2022-07-23T13:35:22;20.20;99.90
15638;DHT22;26604;53.596;10.042;2022-07-23T13:37:50;20.30;99.90
15638;DHT22;26604;53.596;10.042;2022-07-23T13:40:17;20.40;1.00
15638;DHT22;26604;53.596;10.042;2022-07-23T13:42:43;20.20;99.90
15638;DHT22;26604;53.596;10.042;2022-07-23T13:45:10;19.90;99.90
15638;DHT22;26604;53.596;10.042;2022-07-23T13:47:37;19.70;99.90
15638;DHT22;26604;53.596;10.042;2022-07-23T13:50:07;19.60;1.00
15638;DHT22;26604;53.596;10.042;2022-07-23T13:52:34;19.70;1.00
15638;DHT22;26604;53.596;10.042;2022-07-23T13:55:02;19.70;1.00
15638;DHT22;26604;53.596;10.042;2022-07-23T13:57:29;19.70;99.90
15638;DHT22;26604;53.596;10.042;2022-07-23T13:59:56;19.80;99.90
15638;DHT22;26604;53.596;10.042;2022-07-23T14:02:24;20.00;1.00
15638;DHT22;26604;53.596;10.042;2022-07-23T14:04:51;20.30;1.00
15638;DHT22;26604;53.596;10.042;2022-07-23T14:07:20;20.60;1.00
15638;DHT22;26604;53.596;10.042;2022-07-23T14:09:47;20.80;1.00
15638;DHT22;26604;53.596;10.042;2022-07-23T14:12:14;21.00;99.90
15638;DHT22;26604;53.596;10.042;2022-07-23T14:14:41;21.20;99.90
15638;DHT22;26604;53.596;10.042;2022-07-23T14:17:08;21.40;99.90
15638;DHT22;26604;53.596;10.042;2022-07-23T14:19:35;21.50;19.40
15638;DHT22;26604;53.596;10.042;2022-07-23T14:22:02;21.60;1.00
15638;DHT22;26604;53.596;10.042;2022-07-23T14:24:31;21.60;1.00
15638;DHT22;26604;53.596;10.042;2022-07-23T14:26:59;21.70;99.90
15638;DHT22;26604;53.596;10.042;2022-07-23T14:29:26;21.70;99.90
15638;DHT22;26604;53.596;10.042;2022-07-23T14:31:53;21.70;1.00
15638;DHT22;26604;53.596;10.042;2022-07-23T14:34:20;21.80;1.00
15638;DHT22;26604;53.596;10.042;2022-07-23T14:36:47;21.80;99.90
15638;DHT22;26604;53.596;10.042;2022-07-23T14:39:14;21.80;99.90
15638;DHT22;26604;53.596;10.042;2022-07-23T14:41:42;21.80;1.00
15638;DHT22;26604;53.596;10.042;2022-07-23T14:44:09;21.80;1.00
15638;DHT22;26604;53.596;10.042;2022-07-23T14:46:36;21.80;99.90
15638;DHT22;26604;53.596;10.042;2022-07-23T14:49:03;21.90;98.00
15638;DHT22;26604;53.596;10.042;2022-07-23T14:51:30;21.90;1.00
15638;DHT22;26604;53.596;10.042;2022-07-23T14:53:57;21.90;1.00
15638;DHT22;26604;53.596;10.042;2022-07-23T14:56:24;21.90;99.90
15638;DHT22;26604;53.596;10.042;2022-07-23T14:58:53;21.90;99.90
15638;DHT22;26604;53.596;10.042;2022-07-23T15:01:21;21.90;1.00
15638;DHT22;26604;53.596;10.042;2022-07-23T15:03:48;21.90;1.00
15638;DHT22;26604;53.596;10.042;2022-07-23T15:06:16;21.90;1.00
15638;DHT22;26604;53.596;10.042;2022-07-23T15:08:43;21.90;1.00
15638;DHT22;26604;53.596;10.042;2022-07-23T15:11:10;22.00;1.00
15638;DHT22;26604;53.596;10.042;2022-07-23T15:13:37;22.00;1.00
15638;DHT22;26604;53.596;10.042;2022-07-23T15:16:06;22.00;1.00
15638;DHT22;26604;53.596;10.042;2022-07-23T15:18:34;22.00;99.90
15638;DHT22;26604;53.596;10.042;2022-07-23T15:21:01;22.00;99.90
15638;DHT22;26604;53.596;10.042;2022-07-23T15:23:28;22.00;99.90
15638;DHT22;26604;53.596;10.042;2022-07-23T15:25:55;22.00;99.90
15638;DHT22;26604;53.596;10.042;2022-07-23T15:28:22;22.00;44.40
15638;DHT22;26604;53.596;10.042;2022-07-23T15:30:50;22.00;1.00
15638;DHT22;26604;53.596;10.042;2022-07-23T15:33:19;22.00;1.00